Observations for CARDIFF-WALES ARPT, United Kingdom (EGFF)

EGFF 200650Z AUTO 07005KT 9999 NCD 12/07 Q1032  
EGFF 200620Z AUTO 08005KT 050V120 9999 NCD 11/07 Q1031  
EGFF 200550Z AUTO VRB03KT 9999 NCD 11/07 Q1031  
EGFF 200520Z AUTO 07005KT 9999 NCD 10/07 Q1031  
EGFF 200450Z AUTO 07007KT 9999 NCD 10/06 Q1031  
EGFF 200420Z AUTO 07008KT 9999 NCD 11/07 Q1031  
EGFF 200350Z AUTO 07006KT 9999 NCD 11/07 Q1031  
EGFF 200320Z AUTO 08005KT 9999 NCD 12/07 Q1031  
EGFF 200250Z AUTO 06005KT 9999 NCD 12/07 Q1031  
EGFF 200220Z AUTO 06004KT 9999 NCD 12/07 Q1031  
EGFF 200150Z AUTO 06004KT 9999 NCD 14/07 Q1031  
EGFF 200120Z AUTO 06005KT 9999 NCD 14/07 Q1031  
EGFF 200050Z AUTO 07004KT 9999 NCD 13/07 Q1031  
EGFF 200020Z AUTO 05004KT 9999 NCD 15/08 Q1031  
EGFF 192350Z AUTO 06005KT 9999 NCD 14/07 Q1031  
EGFF 192320Z AUTO 05003KT 9999 NCD 14/07 Q1031  
EGFF 192250Z AUTO 04005KT 9999 NCD 16/08 Q1031  
EGFF 192220Z AUTO 04005KT 9999 NCD 15/08 Q1031  
EGFF 192150Z AUTO 03005KT 9999 NCD 14/08 Q1030  
EGFF 192120Z AUTO 03006KT 9999 NCD 16/08 Q1030  
EGFF 192050Z AUTO 03006KT 9999 NCD 16/08 Q1030  
EGFF 192020Z AUTO 04006KT 9999 NCD 18/08 Q1030  
EGFF 191950Z AUTO 06005KT 9999 NCD 18/08 Q1030  
EGFF 191920Z AUTO 06004KT 040V100 9999 NCD 19/07 Q1030  
EGFF 191850Z AUTO 07003KT 9999 NCD 20/07 Q1029  
EGFF 191820Z AUTO 07003KT 9999 NCD 20/07 Q1029  
EGFF 191750Z AUTO 07003KT 9999 NCD 20/07 Q1029  
EGFF 191720Z AUTO 07005KT 9999 NCD 21/06 Q1029  
EGFF 191650Z AUTO VRB02KT 9999 NCD 21/06 Q1028  
EGFF 191620Z AUTO VRB03KT 9999 NCD 22/10 Q1028  
EGFF 191550Z AUTO 09005KT 050V120 9999 NCD 21/08 Q1028  
EGFF 191520Z AUTO 08007KT 040V130 9999 NCD 21/08 Q1028  
EGFF 191450Z AUTO 09007KT 060V120 9999 NCD 21/09 Q1028  
EGFF 191420Z AUTO 09008KT 9999 NCD 21/09 Q1028  
EGFF 191350Z AUTO 08011KT 9999 NCD 20/09 Q1029  
EGFF 191320Z AUTO 07011KT 9999 NCD 20/09 Q1029  
EGFF 191250Z AUTO 08010KT 040V110 9999 NCD 19/09 Q1029  
EGFF 191220Z AUTO 08008KT 050V110 9999 NCD 18/09 Q1029  
EGFF 191150Z AUTO 07011KT 040V110 9999 NCD 18/09 Q1029  
EGFF 191120Z AUTO 07013KT 9999 NCD 17/09 Q1028  
EGFF 191050Z AUTO 07012KT 9999 NCD 16/09 Q1028  
EGFF 191020Z AUTO 07011KT 9999 NCD 17/09 Q1028  
EGFF 190950Z AUTO 07011KT 9999 NCD 16/08 Q1028  
EGFF 190920Z AUTO 07010KT 9999 NCD 16/09 Q1028  
EGFF 190850Z AUTO 07009KT 040V120 9999 NCD 15/08 Q1028  
EGFF 190820Z AUTO 08008KT 9999 NCD 14/07 Q1028  
EGFF 190750Z AUTO 07008KT 9999 NCD 14/07 Q1028  
EGFF 190720Z AUTO 07008KT 9999 NCD 13/07 Q1027  
EGFF 190650Z AUTO 06009KT 9999 NCD 12/07 Q1027  
EGFF 190620Z AUTO 06008KT 9999 NCD 11/07 Q1027